Time;durP1;ratioP1;P1;durP2;ratioP2;P2;SDS_P1;SDS_P2;PMS_P1;PMS_P2;Temp;Humidity;BMP_temperature;BMP_pressure;BME280_temperature;BME280_humidity;BME280_pressure;Samples;Min_cycle;Max_cycle;Signal;HPM_P1;HPM_P2
2023/12/07 00:00:32;;;;;;;25.97;17.00;;;1.70;99.90;;;;;;5032956;28;20218;-64
2023/12/07 00:02:59;;;;;;;23.20;16.63;;;1.70;99.90;;;;;;5030966;28;20179;-64
2023/12/07 00:05:25;;;;;;;24.60;17.80;;;1.70;99.90;;;;;;5026825;28;20250;-63
2023/12/07 00:07:50;;;;;;;27.27;16.40;;;1.80;99.90;;;;;;5032756;28;20987;-63
2023/12/07 00:10:16;;;;;;;30.00;17.60;;;1.80;99.90;;;;;;5048797;28;20341;-64
2023/12/07 00:12:41;;;;;;;26.90;18.70;;;1.70;99.90;;;;;;5032616;28;20646;-64
2023/12/07 00:15:07;;;;;;;31.10;17.87;;;1.70;99.90;;;;;;5032479;28;20182;-64
2023/12/07 00:17:33;;;;;;;24.87;17.07;;;1.70;99.90;;;;;;5032723;28;20235;-65
2023/12/07 00:19:59;;;;;;;28.33;17.10;;;1.70;99.90;;;;;;5030589;28;20568;-62
2023/12/07 00:22:26;;;;;;;26.97;16.77;;;1.60;99.90;;;;;;5032674;28;20506;-63
2023/12/07 00:24:52;;;;;;;22.77;14.97;;;1.70;99.90;;;;;;5032541;28;20905;-63
2023/12/07 00:27:18;;;;;;;26.53;15.90;;;1.70;99.90;;;;;;5033373;28;20536;-62
2023/12/07 00:29:43;;;;;;;26.03;16.47;;;1.70;99.90;;;;;;5032750;28;20462;-62
2023/12/07 00:32:09;;;;;;;23.70;16.57;;;1.70;99.90;;;;;;5032445;28;20449;-62
2023/12/07 00:34:35;;;;;;;24.03;16.20;;;1.70;99.90;;;;;;5031000;28;20180;-62
2023/12/07 00:37:00;;;;;;;26.60;17.17;;;1.70;99.90;;;;;;5032455;28;20706;-62
2023/12/07 00:39:26;;;;;;;25.07;17.20;;;1.70;99.90;;;;;;5032153;28;20522;-63
2023/12/07 00:41:52;;;;;;;23.63;16.50;;;1.70;99.90;;;;;;5032299;28;20599;-63
2023/12/07 00:44:18;;;;;;;22.67;16.13;;;1.70;99.90;;;;;;5038622;28;20172;-63
2023/12/07 00:46:43;;;;;;;24.23;17.33;;;1.70;99.90;;;;;;5030594;28;21003;-63
2023/12/07 00:49:09;;;;;;;23.23;16.57;;;1.70;99.90;;;;;;5030996;28;20662;-62
2023/12/07 00:51:35;;;;;;;24.10;15.47;;;1.70;99.90;;;;;;5031675;28;20236;-64
2023/12/07 00:54:01;;;;;;;24.47;17.60;;;1.70;99.90;;;;;;5031704;28;20414;-64
2023/12/07 00:56:26;;;;;;;26.83;17.30;;;1.80;99.90;;;;;;5031014;28;20183;-63
2023/12/07 00:58:52;;;;;;;24.00;17.10;;;1.70;99.90;;;;;;5030501;28;20172;-63
2023/12/07 01:01:18;;;;;;;31.60;16.67;;;1.70;99.90;;;;;;5027680;28;20680;-63
2023/12/07 01:03:43;;;;;;;21.60;17.23;;;1.70;99.90;;;;;;5031124;28;20182;-63
2023/12/07 01:06:11;;;;;;;25.20;16.70;;;1.70;99.90;;;;;;5027713;28;20199;-63
2023/12/07 01:08:37;;;;;;;24.70;18.00;;;1.70;99.90;;;;;;5027036;28;20172;-63
2023/12/07 01:11:04;;;;;;;25.47;16.70;;;1.60;99.90;;;;;;5031840;28;20465;-63
2023/12/07 01:13:30;;;;;;;23.17;14.23;;;1.70;99.90;;;;;;5030500;28;20548;-63
2023/12/07 01:15:56;;;;;;;28.07;18.93;;;1.80;99.90;;;;;;5027755;28;20479;-63
2023/12/07 01:18:21;;;;;;;24.33;17.00;;;1.70;99.90;;;;;;5030733;28;20901;-64
2023/12/07 01:20:48;;;;;;;25.53;17.07;;;1.70;99.90;;;;;;5031604;28;20484;-64
2023/12/07 01:23:14;;;;;;;24.13;17.03;;;1.70;99.90;;;;;;5028288;28;20547;-64
2023/12/07 01:25:40;;;;;;;27.20;17.57;;;1.70;99.90;;;;;;5037668;28;20429;-64
2023/12/07 01:28:05;;;;;;;25.00;16.50;;;1.70;99.90;;;;;;5034009;28;20426;-64
2023/12/07 01:30:31;;;;;;;24.17;17.53;;;1.70;99.90;;;;;;5028011;28;20298;-64
2023/12/07 01:32:57;;;;;;;23.23;16.70;;;1.70;99.90;;;;;;5033387;28;20180;-64
2023/12/07 01:35:22;;;;;;;23.63;16.67;;;1.70;99.90;;;;;;5031470;28;20178;-62
2023/12/07 01:37:48;;;;;;;22.50;15.17;;;1.70;99.90;;;;;;5038560;28;20418;-63
2023/12/07 01:40:14;;;;;;;24.50;15.50;;;1.70;99.90;;;;;;5029089;28;20231;-63
2023/12/07 01:42:49;;;;;;;27.53;18.60;;;1.70;99.90;;;;;;5026971;28;20180;-63
2023/12/07 01:45:15;;;;;;;23.70;16.60;;;1.70;99.90;;;;;;5029834;28;20978;-62
2023/12/07 01:47:41;;;;;;;26.47;16.10;;;1.70;99.90;;;;;;5023467;28;20434;-62
2023/12/07 01:50:08;;;;;;;24.40;16.47;;;1.70;99.90;;;;;;5029218;28;20261;-63
2023/12/07 01:52:38;;;;;;;25.70;16.83;;;1.70;99.90;;;;;;5026205;28;20414;-63
2023/12/07 01:55:05;;;;;;;21.63;16.50;;;1.70;99.90;;;;;;5027905;28;20473;-62
2023/12/07 01:57:30;;;;;;;25.77;17.00;;;1.70;99.90;;;;;;5031049;28;20427;-65
2023/12/07 01:59:56;;;;;;;22.80;14.50;;;1.70;99.90;;;;;;5030383;28;21110;-62
2023/12/07 02:02:22;;;;;;;25.80;17.33;;;1.70;99.90;;;;;;5026432;28;20199;-61
2023/12/07 02:04:47;;;;;;;22.40;15.70;;;1.70;99.90;;;;;;5030701;28;20262;-64
2023/12/07 02:07:13;;;;;;;22.20;17.33;;;1.70;99.90;;;;;;5028390;28;20194;-62
2023/12/07 02:09:39;;;;;;;24.13;16.73;;;1.70;99.90;;;;;;5029362;28;20199;-62
2023/12/07 02:12:04;;;;;;;21.73;15.67;;;1.70;99.90;;;;;;5029558;28;20226;-63
2023/12/07 02:14:30;;;;;;;25.63;17.23;;;1.70;99.90;;;;;;5030639;28;20207;-63
2023/12/07 02:17:08;;;;;;;27.80;18.50;;;1.70;99.90;;;;;;5029963;28;20180;-63
2023/12/07 02:20:19;;;;;;;28.90;17.17;;;1.80;99.90;;;;;;5021544;28;20175;-62
2023/12/07 02:22:56;;;;;;;27.57;17.03;;;1.80;99.90;;;;;;5014062;28;20520;-63
2023/12/07 02:25:32;;;;;;;27.03;17.07;;;1.80;99.90;;;;;;5028935;28;20520;-63
2023/12/07 02:27:57;;;;;;;22.17;15.70;;;1.80;99.90;;;;;;5030466;28;20422;-63
2023/12/07 02:30:23;;;;;;;21.57;15.57;;;1.80;99.90;;;;;;5026163;28;20472;-63
2023/12/07 02:32:49;;;;;;;21.30;15.67;;;1.80;99.90;;;;;;5028366;28;20266;-63
2023/12/07 02:35:15;;;;;;;25.30;16.50;;;1.80;99.90;;;;;;5029107;28;20642;-63
2023/12/07 02:37:48;;;;;;;22.70;15.63;;;1.70;99.90;;;;;;5030172;28;20187;-63
2023/12/07 02:40:19;;;;;;;23.67;16.53;;;1.70;99.90;;;;;;5032217;28;20438;-63
2023/12/07 02:42:46;;;;;;;25.37;16.43;;;1.70;99.90;;;;;;5031276;28;20513;-63
2023/12/07 02:45:12;;;;;;;26.37;17.50;;;1.70;99.90;;;;;;5030157;28;20440;-62
2023/12/07 02:47:38;;;;;;;21.03;15.47;;;1.70;99.90;;;;;;5023285;28;20481;-62
2023/12/07 02:50:06;;;;;;;24.90;17.20;;;1.70;99.90;;;;;;5028075;28;20482;-63
2023/12/07 02:52:32;;;;;;;23.07;15.57;;;1.70;99.90;;;;;;5031646;28;20422;-62
2023/12/07 02:54:58;;;;;;;24.37;15.30;;;1.70;99.90;;;;;;5029716;28;20428;-62
2023/12/07 02:57:23;;;;;;;28.00;16.50;;;1.70;99.90;;;;;;5027740;28;20513;-63
2023/12/07 02:59:49;;;;;;;21.73;15.43;;;1.70;99.90;;;;;;5028463;28;20241;-63
2023/12/07 03:02:15;;;;;;;20.27;14.60;;;1.70;99.90;;;;;;5023001;28;20796;-63
2023/12/07 03:04:40;;;;;;;24.63;17.27;;;1.70;99.90;;;;;;5026909;28;20603;-63
2023/12/07 03:07:06;;;;;;;22.80;15.00;;;1.70;99.90;;;;;;5035282;28;20258;-62
2023/12/07 03:09:31;;;;;;;23.00;15.83;;;1.80;99.90;;;;;;5019656;28;20689;-63
2023/12/07 03:11:57;;;;;;;26.97;17.90;;;1.80;99.90;;;;;;5030235;28;20550;-63
2023/12/07 03:14:23;;;;;;;25.93;17.10;;;1.80;99.90;;;;;;5029706;28;20183;-63
2023/12/07 03:16:48;;;;;;;23.10;16.57;;;1.90;99.90;;;;;;5028637;28;20673;-62
2023/12/07 03:19:14;;;;;;;19.73;14.60;;;1.80;99.90;;;;;;5026642;28;20256;-62
2023/12/07 03:21:41;;;;;;;26.07;16.27;;;1.80;99.90;;;;;;5032599;28;20210;-62
2023/12/07 03:24:10;;;;;;;26.50;16.57;;;1.80;99.90;;;;;;5032521;28;20195;-61
2023/12/07 03:26:37;;;;;;;24.80;17.17;;;1.70;99.90;;;;;;5028797;28;20762;-64
2023/12/07 03:29:02;;;;;;;23.47;16.67;;;1.80;99.90;;;;;;5025882;28;20757;-63
2023/12/07 03:31:28;;;;;;;24.50;16.70;;;1.80;99.90;;;;;;5032483;28;20433;-63
2023/12/07 03:33:54;;;;;;;25.10;17.67;;;1.80;99.90;;;;;;5033110;28;20176;-63
2023/12/07 03:36:20;;;;;;;26.20;17.27;;;1.90;99.90;;;;;;5027953;28;20172;-63
2023/12/07 03:38:45;;;;;;;26.57;18.40;;;1.80;99.90;;;;;;5042017;28;20504;-63
2023/12/07 03:41:11;;;;;;;28.07;18.33;;;1.80;99.90;;;;;;5033914;28;20613;-65
2023/12/07 03:43:36;;;;;;;27.30;17.23;;;1.80;99.90;;;;;;5044019;28;20203;-65
2023/12/07 03:46:07;;;;;;;24.80;16.67;;;1.70;99.90;;;;;;5034552;28;20176;-64
2023/12/07 03:48:33;;;;;;;27.13;18.27;;;1.80;99.90;;;;;;5026759;28;20184;-63
2023/12/07 03:50:59;;;;;;;27.27;16.97;;;1.80;99.90;;;;;;5031223;28;20469;-64
2023/12/07 03:53:25;;;;;;;26.50;16.23;;;1.70;99.90;;;;;;5032661;28;20418;-63
2023/12/07 03:55:50;;;;;;;30.53;18.30;;;1.60;99.90;;;;;;5023184;28;20426;-63
2023/12/07 03:58:16;;;;;;;27.17;17.03;;;1.60;99.90;;;;;;5032256;28;20543;-64
2023/12/07 04:00:42;;;;;;;27.87;18.47;;;1.60;99.90;;;;;;5029514;28;20622;-62
2023/12/07 04:03:08;;;;;;;32.40;18.13;;;1.70;99.90;;;;;;5029776;28;20553;-61
2023/12/07 04:05:34;;;;;;;32.50;18.50;;;1.70;99.90;;;;;;5030398;28;20168;-62
2023/12/07 04:07:59;;;;;;;36.07;19.70;;;1.90;99.90;;;;;;5029862;28;20639;-61
2023/12/07 04:10:25;;;;;;;35.30;21.67;;;1.90;99.90;;;;;;5038181;28;20465;-62
2023/12/07 04:12:52;;;;;;;30.77;19.20;;;1.90;99.90;;;;;;5033454;28;20603;-63
2023/12/07 04:15:18;;;;;;;31.97;19.50;;;1.90;99.90;;;;;;5035851;28;20271;-62
2023/12/07 04:17:44;;;;;;;29.87;17.83;;;1.90;99.90;;;;;;5030223;28;20447;-63
2023/12/07 04:20:10;;;;;;;31.70;17.57;;;1.90;99.90;;;;;;5032011;28;20569;-62
2023/12/07 04:22:36;;;;;;;34.17;18.13;;;2.00;99.90;;;;;;5030234;28;20576;-63
2023/12/07 04:25:01;;;;;;;33.43;19.13;;;1.90;99.90;;;;;;5025217;28;20545;-63
2023/12/07 04:27:27;;;;;;;31.53;20.93;;;1.80;99.90;;;;;;5031780;28;20317;-63
2023/12/07 04:29:53;;;;;;;36.23;21.10;;;1.80;99.90;;;;;;5026189;28;20226;-63
2023/12/07 04:32:19;;;;;;;29.80;18.13;;;1.90;99.90;;;;;;5036118;28;20182;-63
2023/12/07 04:34:44;;;;;;;32.57;19.47;;;1.90;99.90;;;;;;5033711;28;20423;-63
2023/12/07 04:37:10;;;;;;;26.90;18.07;;;2.00;99.90;;;;;;5032156;28;20176;-63
2023/12/07 04:39:37;;;;;;;30.30;17.93;;;2.00;99.90;;;;;;5014071;28;20662;-62
2023/12/07 04:42:03;;;;;;;31.63;19.03;;;2.00;99.90;;;;;;5025914;28;20539;-64
2023/12/07 04:44:28;;;;;;;29.63;19.40;;;2.00;99.90;;;;;;5040203;28;20467;-63
2023/12/07 04:46:54;;;;;;;26.47;17.20;;;1.80;99.90;;;;;;5020100;28;20472;-63
2023/12/07 04:49:19;;;;;;;35.93;21.20;;;1.70;99.90;;;;;;5031819;28;20529;-63
2023/12/07 04:51:46;;;;;;;30.80;18.50;;;1.70;99.90;;;;;;5025238;28;20195;-63
2023/12/07 04:54:14;;;;;;;34.03;19.03;;;1.70;99.90;;;;;;5031502;28;20187;-63
2023/12/07 04:56:40;;;;;;;29.33;18.37;;;1.70;99.90;;;;;;5031983;28;20418;-63
2023/12/07 04:59:06;;;;;;;31.13;18.40;;;1.60;99.90;;;;;;5032383;28;20874;-62
2023/12/07 05:01:31;;;;;;;31.00;19.13;;;1.70;99.90;;;;;;5030945;28;20478;-64
2023/12/07 05:03:57;;;;;;;31.03;19.97;;;1.70;99.90;;;;;;5031454;28;20176;-63
2023/12/07 05:06:23;;;;;;;33.90;18.97;;;1.80;99.90;;;;;;5029311;28;20175;-63
2023/12/07 05:08:48;;;;;;;26.23;17.63;;;1.90;99.90;;;;;;5031656;28;20236;-63
2023/12/07 05:11:14;;;;;;;29.70;18.50;;;1.90;99.90;;;;;;5031307;28;20203;-63
2023/12/07 05:13:39;;;;;;;36.17;19.77;;;1.90;99.90;;;;;;5025868;28;20195;-63
2023/12/07 05:16:05;;;;;;;32.70;18.70;;;1.90;99.90;;;;;;5038083;28;20171;-64
2023/12/07 05:18:31;;;;;;;31.33;20.17;;;1.90;99.90;;;;;;5031356;28;20192;-64
2023/12/07 05:20:56;;;;;;;29.70;19.23;;;1.80;99.90;;;;;;5028574;28;20212;-63
2023/12/07 05:23:22;;;;;;;30.80;18.57;;;1.80;99.90;;;;;;5031319;28;20184;-64
2023/12/07 05:25:47;;;;;;;33.33;17.27;;;1.70;99.90;;;;;;5027403;28;20215;-64
2023/12/07 05:28:13;;;;;;;31.07;19.90;;;1.70;99.90;;;;;;5025447;28;20179;-63
2023/12/07 05:30:39;;;;;;;28.90;20.23;;;1.80;99.90;;;;;;5033926;28;20214;-64
2023/12/07 05:33:04;;;;;;;29.53;17.77;;;1.80;99.90;;;;;;5034045;28;20528;-64
2023/12/07 05:35:30;;;;;;;27.60;18.33;;;1.70;99.90;;;;;;5030919;28;20207;-64
2023/12/07 05:37:55;;;;;;;31.50;20.20;;;1.80;99.90;;;;;;5021880;28;20190;-64
2023/12/07 05:40:21;;;;;;;30.80;17.90;;;1.70;99.90;;;;;;5038662;28;20199;-63
2023/12/07 05:42:50;;;;;;;30.77;18.23;;;1.70;99.90;;;;;;5025853;28;20187;-64
2023/12/07 05:45:16;;;;;;;32.40;17.83;;;1.80;99.90;;;;;;5031086;28;20199;-64
2023/12/07 05:47:41;;;;;;;36.53;19.10;;;1.80;99.90;;;;;;5030897;28;20423;-63
2023/12/07 05:50:08;;;;;;;33.53;19.53;;;1.80;99.90;;;;;;5031068;28;20676;-64
2023/12/07 05:52:33;;;;;;;37.30;20.30;;;1.80;99.90;;;;;;5028138;28;20175;-63
2023/12/07 05:54:59;;;;;;;32.23;18.80;;;1.70;99.90;;;;;;5030607;28;20766;-65
2023/12/07 05:57:25;;;;;;;31.53;19.13;;;1.80;99.90;;;;;;5033144;28;20608;-64
2023/12/07 05:59:50;;;;;;;32.73;18.33;;;1.80;99.90;;;;;;5031334;28;20176;-63
2023/12/07 06:02:16;;;;;;;37.17;18.93;;;1.80;99.90;;;;;;5028731;28;20261;-63
2023/12/07 06:04:42;;;;;;;33.20;20.30;;;1.90;99.90;;;;;;5032294;28;20554;-62
2023/12/07 06:07:07;;;;;;;40.13;21.30;;;1.80;99.90;;;;;;5025530;28;20187;-64
2023/12/07 06:09:34;;;;;;;31.90;20.37;;;1.80;99.90;;;;;;5025773;28;20290;-65
2023/12/07 06:11:59;;;;;;;33.90;20.40;;;1.90;99.90;;;;;;5030549;28;20199;-64
2023/12/07 06:14:25;;;;;;;39.23;21.00;;;1.90;99.90;;;;;;5029356;28;20422;-63
2023/12/07 06:16:51;;;;;;;33.83;19.30;;;1.80;99.90;;;;;;5028714;28;20286;-62
2023/12/07 06:19:16;;;;;;;39.30;19.93;;;1.80;99.90;;;;;;5027997;28;20176;-64
2023/12/07 06:21:44;;;;;;;46.83;18.73;;;1.80;99.90;;;;;;5029505;28;20196;-62
2023/12/07 06:24:09;;;;;;;34.33;18.43;;;1.90;99.90;;;;;;5027416;28;20222;-63
2023/12/07 06:26:35;;;;;;;29.60;18.40;;;1.90;99.90;;;;;;5027463;28;20496;-63
2023/12/07 06:29:01;;;;;;;35.60;20.37;;;1.90;99.90;;;;;;5025364;28;20415;-62
2023/12/07 06:31:27;;;;;;;38.07;20.40;;;1.90;99.90;;;;;;5018339;28;20443;-63
2023/12/07 06:33:53;;;;;;;30.93;17.37;;;1.90;99.90;;;;;;5030307;28;20790;-63
2023/12/07 06:36:23;;;;;;;35.60;19.67;;;1.90;99.90;;;;;;5030363;28;20604;-62
2023/12/07 06:38:49;;;;;;;36.43;19.83;;;1.80;99.90;;;;;;5022028;28;20956;-62
2023/12/07 06:41:16;;;;;;;36.00;18.27;;;1.90;99.90;;;;;;5029889;28;20470;-63
2023/12/07 06:43:41;;;;;;;33.87;18.13;;;1.90;99.90;;;;;;5034630;28;20848;-63
2023/12/07 06:46:07;;;;;;;32.13;18.07;;;2.00;99.90;;;;;;5033102;28;20457;-63
2023/12/07 06:48:33;;;;;;;32.13;20.50;;;2.00;99.90;;;;;;5029532;28;20183;-62
2023/12/07 06:50:59;;;;;;;35.93;21.30;;;1.90;99.90;;;;;;5028363;28;20207;-64
2023/12/07 06:53:25;;;;;;;35.53;19.37;;;1.90;99.90;;;;;;5028674;28;20880;-66
2023/12/07 06:55:50;;;;;;;36.90;18.10;;;1.90;99.90;;;;;;5033309;28;20187;-63
2023/12/07 06:58:16;;;;;;;33.07;18.73;;;1.80;99.90;;;;;;5032791;28;20184;-63
2023/12/07 07:00:41;;;;;;;32.73;17.80;;;1.80;99.90;;;;;;5032063;28;20214;-62
2023/12/07 07:03:07;;;;;;;29.33;17.77;;;1.80;99.90;;;;;;5040846;28;20182;-62
2023/12/07 07:05:32;;;;;;;32.10;18.20;;;1.90;99.90;;;;;;5033155;28;20263;-63
2023/12/07 07:07:58;;;;;;;27.43;17.40;;;1.80;99.90;;;;;;5034228;28;20662;-63
2023/12/07 07:10:24;;;;;;;30.30;16.87;;;1.90;99.90;;;;;;5031550;28;20195;-62
2023/12/07 07:12:50;;;;;;;27.73;15.53;;;1.80;99.90;;;;;;5038938;28;20266;-62
2023/12/07 07:15:16;;;;;;;26.37;16.30;;;1.90;99.90;;;;;;5028181;28;20469;-62
2023/12/07 07:17:41;;;;;;;37.50;19.00;;;2.20;99.90;;;;;;5032017;28;20183;-62
2023/12/07 07:20:07;;;;;;;32.90;20.13;;;2.30;99.90;;;;;;5031269;28;20406;-62
2023/12/07 07:22:34;;;;;;;29.70;15.50;;;2.30;99.90;;;;;;5033840;28;20233;-62
2023/12/07 07:25:00;;;;;;;28.20;16.50;;;2.00;99.90;;;;;;5032109;28;20424;-63
2023/12/07 07:27:25;;;;;;;34.73;17.00;;;2.10;99.90;;;;;;5031002;28;20415;-63
2023/12/07 07:29:52;;;;;;;33.07;18.53;;;2.10;99.90;;;;;;5028117;28;20454;-63
2023/12/07 07:32:17;;;;;;;28.17;16.60;;;2.10;99.90;;;;;;5032368;28;20698;-64
2023/12/07 07:34:43;;;;;;;25.40;15.40;;;2.00;99.90;;;;;;5028907;28;20604;-64
2023/12/07 07:37:09;;;;;;;35.57;18.57;;;1.90;99.90;;;;;;5032178;28;20210;-62
2023/12/07 07:39:34;;;;;;;34.43;18.47;;;1.80;99.90;;;;;;5033694;28;20233;-63
2023/12/07 07:42:00;;;;;;;27.17;18.07;;;1.90;99.90;;;;;;5030797;28;20580;-62
2023/12/07 07:44:26;;;;;;;33.27;17.83;;;1.90;99.90;;;;;;5040318;28;20605;-64
2023/12/07 07:46:51;;;;;;;31.50;18.70;;;1.90;99.90;;;;;;5029056;28;20547;-64
2023/12/07 07:49:17;;;;;;;39.80;19.80;;;1.90;99.90;;;;;;5032388;28;20180;-63
2023/12/07 07:51:42;;;;;;;34.17;17.73;;;2.00;99.90;;;;;;5024113;28;20226;-63
2023/12/07 07:54:08;;;;;;;40.07;18.20;;;2.10;99.90;;;;;;5026793;28;20175;-63
2023/12/07 07:56:34;;;;;;;31.97;17.87;;;2.00;99.90;;;;;;5031037;28;20163;-63
2023/12/07 07:59:00;;;;;;;32.80;16.93;;;2.10;99.90;;;;;;5028175;28;20168;-63
2023/12/07 08:01:26;;;;;;;35.10;18.40;;;2.00;99.90;;;;;;5029749;28;20207;-63
2023/12/07 08:03:52;;;;;;;34.87;18.63;;;2.10;99.90;;;;;;5027234;28;20434;-63
2023/12/07 08:06:17;;;;;;;24.67;14.83;;;2.20;99.90;;;;;;5024989;28;20416;-63
2023/12/07 08:08:43;;;;;;;32.50;19.07;;;2.20;99.90;;;;;;5030697;28;20171;-63
2023/12/07 08:11:09;;;;;;;30.93;19.00;;;2.10;99.90;;;;;;5026318;28;20195;-63
2023/12/07 08:13:34;;;;;;;39.87;18.13;;;2.10;99.90;;;;;;5037248;28;20252;-63
2023/12/07 08:16:00;;;;;;;30.37;19.40;;;2.10;99.90;;;;;;5030157;28;20165;-63
2023/12/07 08:18:26;;;;;;;40.13;21.23;;;2.10;99.90;;;;;;5039131;28;20183;-64
2023/12/07 08:20:52;;;;;;;28.47;17.13;;;2.10;99.90;;;;;;5031010;28;20495;-63
2023/12/07 08:23:17;;;;;;;26.63;17.00;;;2.00;99.90;;;;;;5033323;28;20179;-63
2023/12/07 08:25:43;;;;;;;33.77;17.63;;;2.10;99.90;;;;;;5032898;28;20532;-63
2023/12/07 08:28:09;;;;;;;33.80;18.80;;;2.20;99.90;;;;;;5032840;28;20172;-62
2023/12/07 08:30:35;;;;;;;29.63;18.20;;;2.20;99.90;;;;;;5034574;28;20210;-63
2023/12/07 08:33:01;;;;;;;27.10;18.03;;;2.20;99.90;;;;;;5036309;28;20412;-63
2023/12/07 08:35:27;;;;;;;33.30;17.77;;;2.30;99.90;;;;;;5032735;28;20402;-63
2023/12/07 08:37:53;;;;;;;27.77;18.33;;;2.30;99.90;;;;;;5030969;28;20183;-62
2023/12/07 08:40:19;;;;;;;37.17;19.57;;;2.20;99.90;;;;;;5030868;28;20341;-63
2023/12/07 08:42:47;;;;;;;29.70;16.50;;;2.20;99.90;;;;;;5032034;28;20764;-63
2023/12/07 08:45:13;;;;;;;28.33;17.20;;;2.20;99.90;;;;;;5033012;28;20441;-63
2023/12/07 08:47:39;;;;;;;30.43;17.50;;;2.60;99.90;;;;;;5033020;28;20417;-62
2023/12/07 08:50:07;;;;;;;28.13;17.00;;;2.30;99.90;;;;;;5030121;28;20466;-63
2023/12/07 08:52:33;;;;;;;32.70;18.40;;;2.30;99.90;;;;;;5032731;28;20443;-63
2023/12/07 08:54:59;;;;;;;25.63;15.30;;;2.30;99.90;;;;;;5029708;28;20430;-63
2023/12/07 08:57:25;;;;;;;28.00;15.90;;;2.30;99.90;;;;;;5041439;28;20467;-63
2023/12/07 08:59:50;;;;;;;29.07;15.90;;;2.20;99.90;;;;;;5032461;28;20414;-63
2023/12/07 09:02:16;;;;;;;28.30;15.97;;;2.40;99.90;;;;;;5034289;28;20199;-63
2023/12/07 09:04:42;;;;;;;25.17;16.73;;;2.40;99.90;;;;;;5031931;28;20561;-62
2023/12/07 09:07:09;;;;;;;25.33;16.83;;;2.40;99.90;;;;;;5032315;28;20171;-62
2023/12/07 09:09:35;;;;;;;27.27;17.20;;;2.40;99.90;;;;;;5041173;28;20195;-63
2023/12/07 09:12:00;;;;;;;27.57;16.03;;;2.30;99.90;;;;;;5030089;28;20971;-63
2023/12/07 09:14:26;;;;;;;25.40;16.10;;;2.40;99.90;;;;;;5032359;28;20411;-63
2023/12/07 09:16:52;;;;;;;31.27;16.50;;;2.40;99.90;;;;;;5031446;28;20285;-63
2023/12/07 09:19:17;;;;;;;31.10;17.70;;;2.40;99.90;;;;;;5031942;28;20421;-63
2023/12/07 09:21:43;;;;;;;30.33;18.10;;;2.40;99.90;;;;;;5031927;28;20195;-63
2023/12/07 09:24:09;;;;;;;24.20;16.27;;;2.50;99.90;;;;;;5030125;28;20187;-63
2023/12/07 09:26:36;;;;;;;34.43;19.70;;;2.40;99.90;;;;;;5028780;28;20180;-63
2023/12/07 09:29:02;;;;;;;28.77;16.77;;;2.40;99.90;;;;;;5032311;28;20179;-63
2023/12/07 09:31:28;;;;;;;30.57;18.37;;;2.40;99.90;;;;;;5031677;28;20788;-62
2023/12/07 09:33:53;;;;;;;31.87;18.40;;;2.40;99.90;;;;;;5032331;28;20414;-62
2023/12/07 09:36:21;;;;;;;39.37;21.43;;;2.60;99.90;;;;;;5031913;28;20190;-63
2023/12/07 09:38:46;;;;;;;49.17;27.10;;;2.50;99.90;;;;;;5031994;28;20180;-63
2023/12/07 09:41:12;;;;;;;43.70;25.17;;;2.70;99.90;;;;;;5031852;28;20941;-63
2023/12/07 09:43:38;;;;;;;29.90;19.47;;;2.60;99.90;;;;;;5032120;28;20830;-64
2023/12/07 09:46:05;;;;;;;24.47;15.47;;;2.70;99.90;;;;;;5031952;28;20449;-64
2023/12/07 09:48:32;;;;;;;32.13;18.20;;;2.60;99.90;;;;;;5044462;28;20438;-64
2023/12/07 09:50:59;;;;;;;28.13;15.27;;;2.50;99.90;;;;;;5038462;28;20464;-67
2023/12/07 09:53:28;;;;;;;25.57;17.30;;;2.40;99.90;;;;;;5035607;28;20726;-63
2023/12/07 09:55:54;;;;;;;27.17;14.33;;;2.50;99.90;;;;;;5029388;28;20892;-67
2023/12/07 09:58:20;;;;;;;26.33;14.40;;;2.60;99.90;;;;;;5031258;28;20450;-67
2023/12/07 10:00:47;;;;;;;19.47;13.20;;;2.30;99.90;;;;;;5031399;28;20670;-67
2023/12/07 10:03:22;;;;;;;25.40;15.50;;;2.30;99.90;;;;;;5037675;28;20642;-67
2023/12/07 10:05:59;;;;;;;20.70;12.70;;;2.30;99.90;;;;;;5033718;28;20444;-64
2023/12/07 10:08:29;;;;;;;18.73;12.73;;;2.30;99.90;;;;;;5034875;28;20835;-64
2023/12/07 10:11:03;;;;;;;23.60;13.37;;;2.20;99.90;;;;;;5021815;28;20472;-63
2023/12/07 10:13:30;;;;;;;25.57;16.50;;;2.40;99.90;;;;;;5031412;28;20417;-64
2023/12/07 10:16:16;;;;;;;24.83;16.20;;;2.50;99.90;;;;;;5029668;28;20429;-64
2023/12/07 10:18:42;;;;;;;24.40;13.17;;;2.60;99.90;;;;;;5027107;28;20562;-64
2023/12/07 10:21:09;;;;;;;25.27;15.13;;;2.30;99.90;;;;;;5030328;28;20473;-64
2023/12/07 10:23:39;;;;;;;30.03;16.00;;;2.40;99.90;;;;;;5029584;28;20183;-64
2023/12/07 10:26:07;;;;;;;29.90;16.17;;;2.50;99.90;;;;;;5034864;28;20487;-64
2023/12/07 10:28:39;;;;;;;32.63;17.10;;;2.30;99.90;;;;;;5030841;28;20437;-66
2023/12/07 10:31:09;;;;;;;25.30;16.83;;;2.20;99.90;;;;;;5032105;28;20466;-68
2023/12/07 10:33:34;;;;;;;24.93;15.37;;;2.20;99.90;;;;;;5031236;28;20418;-63
2023/12/07 10:36:03;;;;;;;29.23;17.23;;;2.20;99.90;;;;;;5031088;28;20838;-68
2023/12/07 10:38:30;;;;;;;31.40;17.80;;;2.30;99.90;;;;;;5031846;28;20179;-63
2023/12/07 10:41:08;;;;;;;27.30;16.57;;;2.40;99.90;;;;;;5031224;28;20500;-64
2023/12/07 10:43:37;;;;;;;22.60;16.03;;;2.30;99.90;;;;;;5033437;28;20729;-64
2023/12/07 10:46:05;;;;;;;23.77;14.00;;;2.40;99.90;;;;;;5028714;28;20457;-64
2023/12/07 10:48:32;;;;;;;29.83;15.57;;;2.60;99.90;;;;;;5030167;28;20475;-64
2023/12/07 10:51:02;;;;;;;30.20;15.00;;;2.60;99.90;;;;;;5029508;28;20468;-63
2023/12/07 10:53:37;;;;;;;25.30;16.03;;;2.80;99.90;;;;;;5033717;28;20410;-63
2023/12/07 10:56:05;;;;;;;26.37;15.77;;;2.90;99.90;;;;;;5029207;28;20563;-64
2023/12/07 10:58:34;;;;;;;26.53;14.37;;;2.90;99.90;;;;;;5029970;28;20879;-64
2023/12/07 11:01:00;;;;;;;25.80;14.37;;;2.70;99.90;;;;;;5030106;28;20925;-64
2023/12/07 11:03:27;;;;;;;25.70;14.10;;;2.80;99.90;;;;;;5037056;28;20417;-63
2023/12/07 11:05:52;;;;;;;26.13;14.97;;;3.00;99.90;;;;;;5030365;28;20422;-63
2023/12/07 11:08:21;;;;;;;29.83;15.10;;;3.10;99.90;;;;;;5030438;28;20506;-63
2023/12/07 11:11:07;;;;;;;28.00;16.20;;;3.10;99.90;;;;;;5035560;28;20223;-63
2023/12/07 11:13:36;;;;;;;28.67;14.70;;;3.00;99.90;;;;;;5034097;28;20429;-63
2023/12/07 11:16:03;;;;;;;24.63;16.73;;;2.90;99.90;;;;;;5029733;28;20465;-63
2023/12/07 11:18:29;;;;;;;20.90;15.10;;;3.10;99.90;;;;;;5029979;28;20410;-64
2023/12/07 11:20:55;;;;;;;26.60;17.13;;;2.90;99.90;;;;;;5030041;28;20441;-64
2023/12/07 11:23:21;;;;;;;29.13;15.30;;;3.00;99.90;;;;;;5018687;28;20983;-64
2023/12/07 11:25:48;;;;;;;31.27;17.57;;;2.90;99.90;;;;;;5029610;28;20606;-64
2023/12/07 11:28:15;;;;;;;24.13;14.30;;;2.60;99.90;;;;;;5029710;28;20498;-64
2023/12/07 11:30:47;;;;;;;24.37;15.70;;;2.70;99.90;;;;;;5030114;28;20555;-63
2023/12/07 11:33:15;;;;;;;22.90;14.40;;;2.90;99.90;;;;;;5030033;28;20783;-64
2023/12/07 11:36:02;;;;;;;25.30;16.33;;;3.00;99.90;;;;;;5030046;28;20429;-63
2023/12/07 11:38:28;;;;;;;22.13;14.63;;;2.90;99.90;;;;;;5029877;28;20398;-64
2023/12/07 11:40:56;;;;;;;25.63;16.47;;;2.60;99.90;;;;;;5031300;28;20548;-64
2023/12/07 11:43:35;;;;;;;21.37;15.60;;;2.60;99.90;;;;;;5035382;28;20199;-64
2023/12/07 11:46:01;;;;;;;25.40;15.80;;;2.60;99.90;;;;;;5033929;28;20446;-64
2023/12/07 11:48:26;;;;;;;28.47;15.97;;;2.80;99.90;;;;;;5037860;28;20457;-64
2023/12/07 11:51:07;;;;;;;25.97;17.20;;;2.80;99.90;;;;;;5033550;28;20469;-64
2023/12/07 11:53:34;;;;;;;25.03;14.60;;;2.80;99.90;;;;;;5033402;28;20254;-64
2023/12/07 11:56:04;;;;;;;26.30;16.17;;;2.80;99.90;;;;;;5030537;28;20839;-64
2023/12/07 11:58:31;;;;;;;24.77;15.90;;;2.60;99.90;;;;;;5031156;28;20809;-64
2023/12/07 12:00:57;;;;;;;27.87;17.00;;;2.50;99.90;;;;;;5033317;28;20454;-68
2023/12/07 12:03:28;;;;;;;26.43;16.80;;;2.60;99.90;;;;;;5033796;28;20464;-70
2023/12/07 12:05:56;;;;;;;21.80;15.13;;;2.70;99.90;;;;;;5028156;28;20438;-64
2023/12/07 12:08:22;;;;;;;25.07;15.90;;;2.60;99.90;;;;;;5024005;28;20446;-64
2023/12/07 12:10:57;;;;;;;23.80;16.00;;;2.50;99.90;;;;;;5033239;28;21069;-63
2023/12/07 12:13:35;;;;;;;31.20;16.47;;;2.50;99.90;;;;;;5040234;28;20162;-65
2023/12/07 12:16:01;;;;;;;34.93;19.33;;;2.40;99.90;;;;;;5046290;28;20430;-65
2023/12/07 12:18:27;;;;;;;28.63;18.83;;;2.50;99.90;;;;;;5032984;28;20421;-64
2023/12/07 12:20:54;;;;;;;32.80;18.47;;;2.40;99.90;;;;;;5035337;28;20198;-65
2023/12/07 12:23:20;;;;;;;29.70;17.20;;;2.40;99.90;;;;;;5029257;28;20724;-65
2023/12/07 12:25:46;;;;;;;30.97;18.97;;;2.40;99.90;;;;;;5036515;28;20413;-64
2023/12/07 12:28:18;;;;;;;28.80;19.13;;;2.40;99.90;;;;;;5032727;28;20913;-64
2023/12/07 12:30:44;;;;;;;30.83;17.10;;;2.50;99.90;;;;;;5040857;28;20457;-65
2023/12/07 12:33:10;;;;;;;29.40;18.20;;;2.40;99.90;;;;;;5018149;28;20430;-63